createdAt,value
2019-01-23T00:00:15.801Z,89.2
2019-01-23T00:01:15.828Z,89.2
2019-01-23T00:02:16.108Z,89.2
2019-01-23T00:03:15.373Z,89.2
2019-01-23T00:04:15.639Z,88.8
2019-01-23T00:05:15.919Z,88.8
2019-01-23T00:06:16.182Z,88.8
2019-01-23T00:07:15.448Z,88.8
2019-01-23T00:08:15.714Z,89.0
2019-01-23T00:09:15.975Z,88.8
2019-01-23T00:10:16.253Z,88.8
2019-01-23T00:11:16.317Z,88.8
2019-01-23T00:12:15.585Z,88.8
2019-01-23T00:13:15.853Z,88.8
2019-01-23T00:14:16.121Z,89.2
2019-01-23T00:15:15.379Z,89.2
2019-01-23T00:16:15.641Z,89.0
2019-01-23T00:17:15.911Z,88.9
2019-01-23T00:18:16.180Z,89.2
2019-01-23T00:19:15.450Z,89.1
2019-01-23T00:20:15.731Z,88.9
2019-01-23T00:21:15.762Z,88.7
2019-01-23T00:22:16.023Z,88.8
2019-01-23T00:23:16.276Z,88.7
2019-01-23T00:24:15.550Z,88.8
2019-01-23T00:25:15.817Z,88.7
2019-01-23T00:26:16.083Z,88.7
2019-01-23T00:27:16.342Z,88.8
2019-01-23T00:28:15.633Z,88.8
2019-01-23T00:29:15.899Z,88.9
2019-01-23T00:30:16.189Z,88.9
2019-01-23T00:31:16.231Z,89.0
2019-01-23T00:32:15.509Z,89.2
2019-01-23T00:33:15.771Z,89.2
2019-01-23T00:34:16.031Z,89.2
2019-01-23T00:35:16.292Z,89.2
2019-01-23T00:36:15.553Z,89.1
2019-01-23T00:37:15.814Z,88.9
2019-01-23T00:38:16.072Z,89.0
2019-01-23T00:39:16.344Z,88.8
2019-01-23T00:40:15.641Z,89.1
2019-01-23T00:41:15.663Z,89.2
2019-01-23T00:42:15.939Z,89.2
2019-01-23T00:43:16.200Z,89.0
2019-01-23T00:44:15.459Z,89.3
2019-01-23T00:45:15.725Z,89.2
2019-01-23T00:46:16.021Z,88.9
2019-01-23T00:47:16.290Z,89.0
2019-01-23T00:48:15.568Z,89.0
2019-01-23T00:49:15.823Z,89.2
2019-01-23T00:50:16.101Z,89.0
2019-01-23T00:51:16.165Z,89.0
2019-01-23T00:52:15.437Z,89.2
2019-01-23T00:53:15.698Z,89.2
2019-01-23T00:54:15.973Z,88.9
2019-01-23T00:55:16.239Z,88.9
2019-01-23T00:56:15.508Z,88.8
2019-01-23T00:57:16.056Z,89.0
2019-01-23T00:58:16.318Z,89.0
2019-01-23T00:59:15.588Z,89.0
2019-01-23T01:00:15.893Z,88.9
2019-01-23T01:01:15.941Z,89.1
2019-01-23T01:02:16.204Z,89.0
2019-01-23T01:03:15.471Z,89.0
2019-01-23T01:04:15.736Z,89.0
2019-01-23T01:05:16.028Z,88.8
2019-01-23T01:06:16.295Z,88.9
2019-01-23T01:07:15.557Z,88.7
2019-01-23T01:08:15.826Z,88.7
2019-01-23T01:09:16.093Z,89.0
2019-01-23T01:10:16.366Z,88.8
2019-01-23T01:11:15.411Z,88.9
2019-01-23T01:12:15.674Z,88.9
2019-01-23T01:13:16.404Z,89.0
2019-01-23T01:14:15.663Z,88.7
2019-01-23T01:15:15.937Z,88.7
2019-01-23T01:16:16.202Z,88.8
2019-01-23T01:17:15.474Z,89.0
2019-01-23T01:18:15.744Z,88.8
2019-01-23T01:19:16.017Z,88.9
2019-01-23T01:20:16.281Z,89.0
2019-01-23T01:21:16.347Z,89.0
2019-01-23T01:22:15.607Z,88.8
2019-01-23T01:23:15.876Z,88.8
2019-01-23T01:24:16.139Z,88.8
2019-01-23T01:25:15.414Z,89.0
2019-01-23T01:26:15.682Z,88.9
2019-01-23T01:27:15.949Z,88.8
2019-01-23T01:28:16.219Z,88.9
2019-01-23T01:29:15.479Z,88.9
2019-01-23T01:30:15.785Z,88.9
2019-01-23T01:31:15.802Z,88.9
2019-01-23T01:32:16.056Z,88.9
2019-01-23T01:33:16.321Z,88.8
2019-01-23T01:34:15.591Z,88.9
2019-01-23T01:35:15.854Z,89.1
2019-01-23T01:36:16.118Z,89.0
2019-01-23T01:37:15.426Z,89.0
2019-01-23T01:38:15.700Z,89.0
2019-01-23T01:39:15.970Z,88.9
2019-01-23T01:40:16.266Z,88.9
2019-01-23T01:41:16.269Z,88.8
2019-01-23T01:42:15.533Z,88.8
2019-01-23T01:43:15.795Z,88.8
2019-01-23T01:44:16.058Z,88.8
2019-01-23T01:45:16.331Z,89.0
2019-01-23T01:46:15.593Z,88.8
2019-01-23T01:47:15.845Z,88.8
2019-01-23T01:48:16.119Z,88.8
2019-01-23T01:49:15.375Z,89.0
2019-01-23T01:50:15.657Z,89.0
2019-01-23T01:51:15.703Z,89.0
2019-01-23T01:52:15.968Z,88.7
2019-01-23T01:53:16.236Z,88.7
2019-01-23T01:54:15.501Z,88.7
2019-01-23T01:55:15.761Z,88.9
2019-01-23T01:56:16.033Z,88.8
2019-01-23T01:57:16.296Z,88.6
2019-01-23T01:58:15.571Z,88.8
2019-01-23T01:59:15.830Z,88.7
2019-01-23T02:00:16.105Z,88.8
2019-01-23T02:01:16.165Z,88.6
2019-01-23T02:02:15.446Z,88.7
2019-01-23T02:03:15.893Z,88.7
2019-01-23T02:04:16.171Z,88.6
2019-01-23T02:05:15.450Z,88.5
2019-01-23T02:06:15.719Z,88.5
2019-01-23T02:07:15.987Z,88.8
2019-01-23T02:08:16.274Z,88.7
2019-01-23T02:09:15.543Z,88.8
2019-01-23T02:10:15.823Z,88.7
2019-01-23T02:11:15.855Z,88.8
2019-01-23T02:12:16.116Z,88.8
2019-01-23T02:13:15.378Z,89.0
2019-01-23T02:14:15.643Z,88.9
2019-01-23T02:15:15.911Z,88.9
2019-01-23T02:16:16.189Z,88.8
2019-01-23T02:17:15.456Z,89.1
2019-01-23T02:18:15.720Z,89.3
2019-01-23T02:19:15.984Z,89.0
2019-01-23T02:20:16.269Z,89.1
2019-01-23T02:21:16.303Z,88.5
2019-01-23T02:22:15.567Z,88.8
2019-01-23T02:23:15.842Z,88.9
2019-01-23T02:24:16.101Z,89.0
2019-01-23T02:25:15.373Z,88.8
2019-01-23T02:26:15.631Z,88.8
2019-01-23T02:27:15.894Z,88.7
2019-01-23T02:28:16.153Z,88.7
2019-01-23T02:29:15.417Z,88.8
2019-01-23T02:30:15.697Z,88.8
2019-01-23T02:31:15.744Z,88.9
2019-01-23T02:32:16.014Z,89.2
2019-01-23T02:33:16.274Z,89.3
2019-01-23T02:34:15.559Z,89.1
2019-01-23T02:35:15.832Z,89.0
2019-01-23T02:36:16.094Z,89.0
2019-01-23T02:37:16.364Z,88.8
2019-01-23T02:38:15.626Z,88.8
2019-01-23T02:39:15.888Z,88.8
2019-01-23T02:40:16.159Z,89.0
2019-01-23T02:41:16.206Z,89.0
2019-01-23T02:42:15.464Z,88.8
2019-01-23T02:43:15.727Z,88.8
2019-01-23T02:44:16.000Z,89.0
2019-01-23T02:45:16.274Z,89.0
2019-01-23T02:46:15.540Z,88.7
2019-01-23T02:47:15.798Z,88.8
2019-01-23T02:48:16.067Z,89.2
2019-01-23T02:49:16.337Z,88.9
2019-01-23T02:50:15.638Z,88.8
2019-01-23T02:51:15.653Z,88.9
2019-01-23T02:52:15.972Z,88.8
2019-01-23T02:53:16.229Z,88.7
2019-01-23T02:54:15.506Z,88.6
2019-01-23T02:55:15.782Z,88.5
2019-01-23T02:56:16.042Z,88.5
2019-01-23T02:57:16.308Z,88.7
2019-01-23T02:58:15.578Z,88.7
2019-01-23T02:59:17.690Z,88.8
2019-01-23T03:00:15.961Z,88.8
2019-01-23T03:01:16.007Z,88.8
2019-01-23T03:02:16.278Z,88.8
2019-01-23T03:03:15.551Z,89.0
2019-01-23T03:04:15.822Z,89.1
2019-01-23T03:05:16.114Z,89.0
2019-01-23T03:06:15.378Z,88.8
2019-01-23T03:07:15.655Z,88.8
2019-01-23T03:08:15.925Z,88.9
2019-01-23T03:09:16.197Z,89.2
2019-01-23T03:10:15.480Z,89.3
2019-01-23T03:11:15.525Z,89.1
2019-01-23T03:12:15.788Z,89.0
2019-01-23T03:13:16.068Z,88.9
2019-01-23T03:14:16.362Z,89.0
2019-01-23T03:15:15.639Z,89.2
2019-01-23T03:16:15.915Z,89.0
2019-01-23T03:17:16.173Z,89.1
2019-01-23T03:18:15.440Z,89.2
2019-01-23T03:19:15.733Z,89.2
2019-01-23T03:20:16.012Z,89.2
2019-01-23T03:21:16.053Z,89.2
2019-01-23T03:22:16.313Z,89.2
2019-01-23T03:23:15.567Z,89.3
2019-01-23T03:24:15.823Z,89.3
2019-01-23T03:25:16.085Z,89.3
2019-01-23T03:26:16.354Z,89.4
2019-01-23T03:27:15.617Z,89.5
2019-01-23T03:28:15.876Z,89.3
2019-01-23T03:29:16.141Z,89.3
2019-01-23T03:30:15.443Z,89.3
2019-01-23T03:31:15.467Z,89.2
2019-01-23T03:32:15.732Z,89.3
2019-01-23T03:33:16.020Z,89.6
2019-01-23T03:34:16.291Z,89.6
2019-01-23T03:35:15.551Z,89.4
2019-01-23T03:36:16.104Z,89.5
2019-01-23T03:37:16.787Z,89.7
2019-01-23T03:38:16.051Z,89.5
2019-01-23T03:39:16.332Z,89.5
2019-01-23T03:40:15.600Z,89.3
2019-01-23T03:41:15.656Z,89.3
2019-01-23T03:42:15.934Z,89.3
2019-01-23T03:43:16.198Z,89.5
2019-01-23T03:44:15.465Z,89.3
2019-01-23T03:45:15.810Z,89.3
2019-01-23T03:46:16.082Z,89.3
2019-01-23T03:47:16.350Z,89.3
2019-01-23T03:48:15.632Z,89.4
2019-01-23T03:49:15.896Z,89.5
2019-01-23T03:50:16.183Z,89.4
2019-01-23T03:51:16.546Z,89.4
2019-01-23T03:52:15.803Z,89.4
2019-01-23T03:53:16.083Z,89.3
2019-01-23T03:54:16.399Z,89.5
2019-01-23T03:55:15.660Z,89.4
2019-01-23T03:56:15.938Z,89.7
2019-01-23T03:57:16.201Z,89.5
2019-01-23T03:58:15.466Z,89.6
2019-01-23T03:59:15.741Z,89.3
2019-01-23T04:00:16.228Z,89.5
2019-01-23T04:01:16.289Z,89.6
2019-01-23T04:02:15.557Z,89.6
2019-01-23T04:03:15.818Z,89.8
2019-01-23T04:04:16.079Z,89.4
2019-01-23T04:05:16.340Z,89.5
2019-01-23T04:06:15.614Z,89.5
2019-01-23T04:07:15.876Z,89.4
2019-01-23T04:08:16.142Z,89.5
2019-01-23T04:09:15.435Z,89.4
2019-01-23T04:10:15.712Z,89.3
2019-01-23T04:11:15.754Z,89.6
2019-01-23T04:12:16.011Z,89.4
2019-01-23T04:13:16.272Z,89.5
2019-01-23T04:14:15.540Z,89.7
2019-01-23T04:15:15.827Z,89.7
2019-01-23T04:16:16.112Z,89.6
2019-01-23T04:17:15.368Z,89.3
2019-01-23T04:18:15.642Z,89.3
2019-01-23T04:19:15.908Z,89.2
2019-01-23T04:20:16.195Z,89.2
2019-01-23T04:21:16.240Z,89.5
2019-01-23T04:22:15.505Z,89.7
2019-01-23T04:23:15.777Z,89.5
2019-01-23T04:24:16.067Z,89.5
2019-01-23T04:25:16.352Z,89.3
2019-01-23T04:26:15.665Z,89.3
2019-01-23T04:27:15.940Z,89.5
2019-01-23T04:28:16.208Z,89.3
2019-01-23T04:29:15.472Z,89.3
2019-01-23T04:30:15.743Z,89.3
2019-01-23T04:31:15.799Z,89.2
2019-01-23T04:32:16.061Z,89.2
2019-01-23T04:33:16.347Z,89.2
2019-01-23T04:34:15.625Z,89.3
2019-01-23T04:35:15.888Z,89.7
2019-01-23T04:36:16.160Z,89.4
2019-01-23T04:37:15.426Z,89.3
2019-01-23T04:38:15.706Z,89.3
2019-01-23T04:39:15.969Z,89.3
2019-01-23T04:40:16.237Z,89.3
2019-01-23T04:41:16.305Z,89.2
2019-01-23T04:42:15.563Z,89.4
2019-01-23T04:43:15.826Z,89.3
2019-01-23T04:44:16.085Z,89.4
2019-01-23T04:45:16.351Z,89.6
2019-01-23T04:46:15.633Z,89.6
2019-01-23T04:47:15.893Z,89.4
2019-01-23T04:48:16.156Z,89.6
2019-01-23T04:49:15.428Z,89.6
2019-01-23T04:50:15.700Z,89.6
2019-01-23T04:51:15.742Z,89.4
2019-01-23T04:52:16.015Z,89.7
2019-01-23T04:53:16.297Z,89.5
2019-01-23T04:54:15.558Z,89.5
2019-01-23T04:55:15.840Z,89.2
2019-01-23T04:56:16.108Z,89.3
2019-01-23T04:57:15.380Z,89.3
2019-01-23T04:58:15.650Z,89.3
2019-01-23T04:59:15.915Z,89.4
2019-01-23T05:00:16.190Z,89.4
2019-01-23T05:01:16.266Z,89.3
2019-01-23T05:02:15.549Z,89.2
2019-01-23T05:03:15.818Z,89.3
2019-01-23T05:04:16.084Z,89.4
2019-01-23T05:05:16.353Z,89.4
2019-01-23T05:06:15.619Z,89.5
2019-01-23T05:07:15.886Z,89.5
2019-01-23T05:08:16.162Z,89.2
2019-01-23T05:09:15.420Z,89.2
2019-01-23T05:10:15.698Z,89.2
2019-01-23T05:11:15.752Z,89.3
2019-01-23T05:12:16.013Z,89.3
2019-01-23T05:13:16.291Z,89.4
2019-01-23T05:14:15.559Z,89.3
2019-01-23T05:15:15.825Z,89.4
2019-01-23T05:16:16.089Z,89.2
2019-01-23T05:17:16.353Z,89.5
2019-01-23T05:18:15.635Z,89.4
2019-01-23T05:19:15.897Z,89.3
2019-01-23T05:20:16.172Z,89.3
2019-01-23T05:21:16.364Z,89.3
2019-01-23T05:22:15.637Z,89.2
2019-01-23T05:23:15.908Z,89.3
2019-01-23T05:24:16.171Z,89.4
2019-01-23T05:25:15.442Z,89.3
2019-01-23T05:26:15.709Z,89.2
2019-01-23T05:27:15.973Z,89.2
2019-01-23T05:28:15.421Z,89.0
2019-01-23T05:29:15.720Z,89.1
2019-01-23T05:30:15.991Z,89.0
2019-01-23T05:31:16.060Z,89.2
2019-01-23T05:32:16.328Z,89.1
2019-01-23T05:33:15.587Z,89.1
2019-01-23T05:34:15.865Z,88.9
2019-01-23T05:35:16.140Z,89.0
2019-01-23T05:36:15.427Z,89.2
2019-01-23T05:37:15.714Z,89.0
2019-01-23T05:38:15.975Z,89.0
2019-01-23T05:39:16.258Z,88.9
2019-01-23T05:40:15.557Z,88.8
2019-01-23T05:41:15.594Z,88.9
2019-01-23T05:42:15.859Z,88.7
2019-01-23T05:43:16.134Z,88.7
2019-01-23T05:44:15.389Z,88.8
2019-01-23T05:45:15.655Z,88.8
2019-01-23T05:46:15.918Z,88.6
2019-01-23T05:47:16.186Z,88.8
2019-01-23T05:48:15.464Z,88.6
2019-01-23T05:49:15.738Z,88.7
2019-01-23T05:50:16.017Z,88.6
2019-01-23T05:51:16.069Z,88.5
2019-01-23T05:52:16.331Z,88.6
2019-01-23T05:53:15.600Z,88.7
2019-01-23T05:54:15.870Z,88.5
2019-01-23T05:55:16.130Z,88.4
2019-01-23T05:56:15.394Z,88.5
2019-01-23T05:57:15.654Z,88.5
2019-01-23T05:58:15.916Z,88.4
2019-01-23T05:59:16.188Z,88.3
2019-01-23T06:00:15.459Z,88.5
2019-01-23T06:01:15.515Z,88.4
2019-01-23T06:02:15.798Z,88.2
2019-01-23T06:03:16.062Z,88.4
2019-01-23T06:04:17.441Z,88.3
2019-01-23T06:05:15.716Z,88.6
2019-01-23T06:06:15.981Z,88.3
2019-01-23T06:07:16.244Z,88.2
2019-01-23T06:08:15.522Z,88.5
2019-01-23T06:09:15.794Z,88.5
2019-01-23T06:10:16.084Z,88.4
2019-01-23T06:11:16.122Z,88.3
2019-01-23T06:12:15.395Z,88.5
2019-01-23T06:13:15.674Z,88.7
2019-01-23T06:14:15.939Z,88.7
2019-01-23T06:15:16.228Z,88.7
2019-01-23T06:16:15.493Z,88.2
2019-01-23T06:17:15.751Z,88.2
2019-01-23T06:18:16.028Z,88.2
2019-01-23T06:19:16.296Z,88.5
2019-01-23T06:20:15.581Z,88.1
2019-01-23T06:21:15.632Z,88.0
2019-01-23T06:22:15.904Z,88.0
2019-01-23T06:23:16.169Z,88.0
2019-01-23T06:24:15.428Z,88.2
2019-01-23T06:25:15.723Z,88.2
2019-01-23T06:26:16.004Z,88.2
2019-01-23T06:27:16.277Z,88.2
2019-01-23T06:28:15.549Z,88.1
2019-01-23T06:29:15.811Z,88.1
2019-01-23T06:30:16.089Z,87.9
2019-01-23T06:31:16.135Z,87.9
2019-01-23T06:32:15.398Z,88.0
2019-01-23T06:33:15.669Z,88.1
2019-01-23T06:34:15.946Z,88.1
2019-01-23T06:35:16.246Z,88.2
2019-01-23T06:36:15.537Z,88.2
2019-01-23T06:37:15.838Z,88.2
2019-01-23T06:38:16.121Z,88.2
2019-01-23T06:39:15.387Z,88.1
2019-01-23T06:40:15.663Z,88.1
2019-01-23T06:41:15.708Z,87.9
2019-01-23T06:42:15.971Z,88.1
2019-01-23T06:43:16.242Z,88.0
2019-01-23T06:44:15.509Z,88.1
2019-01-23T06:45:15.777Z,88.0
2019-01-23T06:46:16.056Z,88.2
2019-01-23T06:47:16.336Z,88.2
2019-01-23T06:48:15.604Z,88.3
2019-01-23T06:49:15.862Z,88.2
2019-01-23T06:50:16.129Z,88.1
2019-01-23T06:51:16.183Z,88.2
2019-01-23T06:52:15.468Z,88.2
2019-01-23T06:53:15.750Z,88.2
2019-01-23T06:54:16.019Z,88.0
2019-01-23T06:55:16.275Z,88.1
2019-01-23T06:56:15.538Z,88.2
2019-01-23T06:57:15.799Z,88.1
2019-01-23T06:58:16.058Z,88.2
2019-01-23T06:59:16.319Z,88.2
2019-01-23T07:00:17.614Z,88.2
2019-01-23T07:01:15.659Z,88.2
2019-01-23T07:02:15.914Z,88.1
2019-01-23T07:03:16.174Z,88.0
2019-01-23T07:04:15.442Z,87.9
2019-01-23T07:05:15.707Z,87.9
2019-01-23T07:06:15.968Z,87.8
2019-01-23T07:07:16.271Z,87.6
2019-01-23T07:08:15.551Z,87.6
2019-01-23T07:09:15.808Z,87.7
2019-01-23T07:10:16.090Z,87.6
2019-01-23T07:11:16.128Z,87.5
2019-01-23T07:12:15.401Z,87.6
2019-01-23T07:13:15.671Z,87.6
2019-01-23T07:14:15.940Z,87.6
2019-01-23T07:15:16.203Z,87.6
2019-01-23T07:16:15.472Z,87.4
2019-01-23T07:17:15.738Z,87.2
2019-01-23T07:18:16.006Z,87.5
2019-01-23T07:19:16.277Z,87.5
2019-01-23T07:20:15.560Z,87.5
2019-01-23T07:21:15.598Z,87.7
2019-01-23T07:22:15.869Z,87.5
2019-01-23T07:23:16.130Z,87.5
2019-01-23T07:24:15.399Z,87.3
2019-01-23T07:25:15.666Z,87.2
2019-01-23T07:26:15.939Z,86.9
2019-01-23T07:27:16.198Z,87.1
2019-01-23T07:28:15.468Z,86.8
2019-01-23T07:29:15.738Z,86.9
2019-01-23T07:30:16.017Z,86.8
2019-01-23T07:31:16.061Z,86.8
2019-01-23T07:32:16.335Z,86.8
2019-01-23T07:33:15.592Z,86.8
2019-01-23T07:34:15.868Z,86.9
2019-01-23T07:35:16.131Z,87.0
2019-01-23T07:36:15.402Z,87.0
2019-01-23T07:37:15.661Z,87.1
2019-01-23T07:38:15.931Z,86.9
2019-01-23T07:39:16.220Z,87.0
2019-01-23T07:40:15.500Z,86.7
2019-01-23T07:41:15.551Z,86.7
2019-01-23T07:42:15.808Z,86.8
2019-01-23T07:43:16.070Z,86.8
2019-01-23T07:44:16.335Z,86.8
2019-01-23T07:45:15.608Z,86.8
2019-01-23T07:46:15.873Z,86.7
2019-01-23T07:47:16.131Z,86.4
2019-01-23T07:48:15.401Z,86.6
2019-01-23T07:49:15.675Z,86.5
2019-01-23T07:50:15.959Z,86.5
2019-01-23T07:51:15.990Z,86.5
2019-01-23T07:52:16.243Z,86.7
2019-01-23T07:53:15.509Z,86.5
2019-01-23T07:54:15.770Z,86.4
2019-01-23T07:55:16.048Z,86.5
2019-01-23T07:56:16.312Z,86.7
2019-01-23T07:57:15.578Z,86.6
2019-01-23T07:58:15.868Z,86.7
2019-01-23T07:59:16.140Z,87.0
2019-01-23T08:00:15.413Z,87.1
2019-01-23T08:01:15.469Z,86.4
2019-01-23T08:02:15.731Z,86.3
2019-01-23T08:03:15.997Z,86.5
2019-01-23T08:04:16.998Z,86.5
2019-01-23T08:05:19.830Z,86.6
2019-01-23T08:06:16.130Z,86.6
2019-01-23T08:07:15.408Z,86.8
2019-01-23T08:08:15.681Z,86.7
2019-01-23T08:09:15.947Z,86.6
2019-01-23T08:10:16.245Z,86.6
2019-01-23T08:11:16.248Z,86.5
2019-01-23T08:12:15.519Z,86.6
2019-01-23T08:13:15.912Z,86.5
2019-01-23T08:14:16.206Z,86.6
2019-01-23T08:15:15.471Z,86.4
2019-01-23T08:16:15.740Z,86.3
2019-01-23T08:17:16.006Z,86.5
2019-01-23T08:18:16.274Z,86.7
2019-01-23T08:19:15.554Z,86.5
2019-01-23T08:20:15.827Z,86.4
2019-01-23T08:21:15.888Z,86.8
2019-01-23T08:22:16.148Z,87.2
2019-01-23T08:23:15.409Z,87.7
2019-01-23T08:24:15.679Z,86.9
2019-01-23T08:25:15.941Z,86.8
2019-01-23T08:26:16.209Z,86.7
2019-01-23T08:27:15.477Z,86.8
2019-01-23T08:28:15.754Z,86.8
2019-01-23T08:29:16.024Z,86.8
2019-01-23T08:30:16.597Z,87.1
2019-01-23T08:31:16.346Z,87.1
2019-01-23T08:32:15.637Z,87.0
2019-01-23T08:33:15.900Z,87.0
2019-01-23T08:34:16.165Z,86.9
2019-01-23T08:35:15.428Z,86.9
2019-01-23T08:36:15.704Z,86.9
2019-01-23T08:37:16.176Z,86.9
2019-01-23T08:38:15.447Z,87.0
2019-01-23T08:39:15.704Z,87.1
2019-01-23T08:40:15.985Z,87.2
2019-01-23T08:41:16.031Z,87.3
2019-01-23T08:42:16.295Z,87.3
2019-01-23T08:43:15.555Z,87.3
2019-01-23T08:44:15.816Z,87.4
2019-01-23T08:45:16.086Z,87.4
2019-01-23T08:46:16.365Z,87.4
2019-01-23T08:47:15.627Z,87.2
2019-01-23T08:48:15.899Z,87.2
2019-01-23T08:49:16.166Z,87.2
2019-01-23T08:50:15.444Z,87.3
2019-01-23T08:51:15.497Z,87.5
2019-01-23T08:52:15.757Z,87.5
2019-01-23T08:53:16.016Z,87.4
2019-01-23T08:54:16.283Z,87.5
2019-01-23T08:55:15.541Z,87.4
2019-01-23T08:56:15.801Z,87.6
2019-01-23T08:57:16.066Z,87.6
2019-01-23T08:58:16.334Z,87.6
2019-01-23T08:59:15.602Z,87.4
2019-01-23T09:00:15.878Z,87.4
2019-01-23T09:01:15.925Z,87.3
2019-01-23T09:02:16.194Z,87.2
2019-01-23T09:03:15.467Z,87.0
2019-01-23T09:04:15.727Z,87.1
2019-01-23T09:05:16.012Z,86.9
2019-01-23T09:06:16.287Z,86.8
2019-01-23T09:07:15.555Z,86.6
2019-01-23T09:08:15.815Z,86.5
2019-01-23T09:09:16.100Z,86.5
2019-01-23T09:10:15.382Z,86.5
2019-01-23T09:11:15.420Z,86.1
2019-01-23T09:12:15.698Z,85.9
2019-01-23T09:13:15.968Z,85.9
2019-01-23T09:14:16.236Z,85.9
2019-01-23T09:15:15.519Z,85.7
2019-01-23T09:16:15.783Z,85.5
2019-01-23T09:17:16.052Z,85.4
2019-01-23T09:18:16.328Z,85.5
2019-01-23T09:19:15.590Z,85.5
2019-01-23T09:20:15.868Z,86.0
2019-01-23T09:21:15.903Z,85.8
2019-01-23T09:22:16.187Z,86.0
2019-01-23T09:23:15.456Z,85.7
2019-01-23T09:24:15.733Z,85.9
2019-01-23T09:25:16.010Z,85.8
2019-01-23T09:26:16.285Z,85.5
2019-01-23T09:27:15.551Z,85.2
2019-01-23T09:28:15.815Z,85.7
2019-01-23T09:29:16.084Z,85.5
2019-01-23T09:30:16.351Z,85.3
2019-01-23T09:31:15.469Z,85.2
2019-01-23T09:32:15.786Z,85.2
2019-01-23T09:33:16.046Z,85.2
2019-01-23T09:34:16.324Z,85.1
2019-01-23T09:35:15.585Z,84.8
2019-01-23T09:36:15.858Z,84.7
2019-01-23T09:37:16.121Z,84.9
2019-01-23T09:38:15.390Z,85.0
2019-01-23T09:39:15.656Z,85.2
2019-01-23T09:40:15.936Z,85.0
2019-01-23T09:41:17.378Z,85.1
2019-01-23T09:42:15.650Z,84.9
2019-01-23T09:43:15.914Z,85.0
2019-01-23T09:44:16.181Z,84.7
2019-01-23T09:45:15.464Z,84.8
2019-01-23T09:46:15.734Z,85.2
2019-01-23T09:47:15.996Z,85.0
2019-01-23T09:48:16.279Z,85.2
2019-01-23T09:49:15.540Z,85.2
2019-01-23T09:50:15.817Z,84.8
2019-01-23T09:51:15.873Z,84.7
2019-01-23T09:52:16.143Z,84.5
2019-01-23T09:53:15.420Z,84.3
2019-01-23T09:54:15.704Z,84.2
2019-01-23T09:55:15.961Z,84.1
2019-01-23T09:56:16.235Z,84.2
2019-01-23T09:57:15.502Z,84.3
2019-01-23T09:58:15.768Z,84.3
2019-01-23T09:59:16.040Z,83.9
2019-01-23T10:00:16.308Z,84.2
2019-01-23T10:01:16.356Z,84.1
2019-01-23T10:02:15.659Z,84.2
2019-01-23T10:03:22.650Z,84.4
2019-01-23T10:04:16.168Z,83.8
2019-01-23T10:05:15.458Z,83.6
2019-01-23T10:06:15.722Z,83.7
2019-01-23T10:07:15.988Z,83.7
2019-01-23T10:08:16.245Z,83.5
2019-01-23T10:09:15.508Z,83.8
2019-01-23T10:10:15.789Z,83.8
2019-01-23T10:11:15.827Z,83.7
2019-01-23T10:12:16.100Z,84.0
2019-01-23T10:13:15.362Z,83.6
2019-01-23T10:14:15.628Z,83.6
2019-01-23T10:15:15.887Z,83.4
2019-01-23T10:16:16.162Z,83.8
2019-01-23T10:17:15.432Z,83.7
2019-01-23T10:18:15.706Z,83.8
2019-01-23T10:19:15.980Z,83.7
2019-01-23T10:20:16.249Z,83.7
2019-01-23T10:21:16.330Z,83.6
2019-01-23T10:22:15.621Z,83.6
2019-01-23T10:23:15.897Z,83.5
2019-01-23T10:24:16.165Z,83.4
2019-01-23T10:25:16.999Z,83.7
2019-01-23T10:26:16.303Z,83.5
2019-01-23T10:27:15.561Z,83.5
2019-01-23T10:28:15.837Z,83.5
2019-01-23T10:29:16.112Z,83.4
2019-01-23T10:30:15.381Z,83.5
2019-01-23T10:31:15.430Z,83.6
2019-01-23T10:32:15.684Z,83.5
2019-01-23T10:33:17.526Z,83.8
2019-01-23T10:34:15.797Z,83.9
2019-01-23T10:35:16.056Z,83.7
2019-01-23T10:36:16.316Z,83.7
2019-01-23T10:37:19.762Z,83.6
2019-01-23T10:38:16.034Z,83.8
2019-01-23T10:39:16.295Z,83.8
2019-01-23T10:40:15.573Z,83.8
2019-01-23T10:41:15.632Z,83.5
2019-01-23T10:42:15.899Z,83.5
2019-01-23T10:43:16.166Z,83.7
2019-01-23T10:44:15.432Z,83.8
2019-01-23T10:45:15.702Z,83.8
2019-01-23T10:46:15.966Z,83.7
2019-01-23T10:47:16.238Z,83.6
2019-01-23T10:48:15.547Z,83.5
2019-01-23T10:49:15.812Z,83.8
2019-01-23T10:50:16.089Z,83.8
2019-01-23T10:51:16.135Z,83.8
2019-01-23T10:52:15.447Z,83.8
2019-01-23T10:53:15.718Z,83.6
2019-01-23T10:54:15.979Z,83.8
2019-01-23T10:55:16.250Z,84.0
2019-01-23T10:56:15.505Z,83.8
2019-01-23T10:57:15.777Z,83.9
2019-01-23T10:58:16.036Z,83.7
2019-01-23T10:59:16.303Z,83.7
2019-01-23T11:00:15.596Z,83.3
2019-01-23T11:01:15.649Z,83.5
2019-01-23T11:02:15.928Z,83.6
2019-01-23T11:03:16.192Z,83.9
2019-01-23T11:04:15.451Z,84.1
2019-01-23T11:05:15.721Z,83.9
2019-01-23T11:06:15.987Z,83.7
2019-01-23T11:07:16.258Z,83.8
2019-01-23T11:08:15.519Z,83.6
2019-01-23T11:09:15.961Z,83.3
2019-01-23T11:10:16.281Z,83.6
2019-01-23T11:11:16.315Z,83.5
2019-01-23T11:12:15.581Z,83.8
2019-01-23T11:13:15.856Z,83.6
2019-01-23T11:14:16.116Z,83.2
2019-01-23T11:15:15.388Z,83.2
2019-01-23T11:16:15.652Z,83.0
2019-01-23T11:17:15.916Z,83.1
2019-01-23T11:18:16.182Z,83.0
2019-01-23T11:19:15.458Z,83.4
2019-01-23T11:20:15.742Z,83.7
2019-01-23T11:21:15.795Z,83.5
2019-01-23T11:22:16.068Z,83.3
2019-01-23T11:23:16.330Z,83.0
2019-01-23T11:24:15.599Z,83.0
2019-01-23T11:25:15.882Z,82.9
2019-01-23T11:26:16.141Z,83.2
2019-01-23T11:27:15.413Z,83.0
2019-01-23T11:28:15.669Z,83.0
2019-01-23T11:29:15.939Z,83.0
2019-01-23T11:30:16.213Z,82.6
2019-01-23T11:31:20.684Z,82.8
2019-01-23T11:32:15.980Z,83.0
2019-01-23T11:33:16.243Z,82.8
2019-01-23T11:34:15.517Z,82.8
2019-01-23T11:35:15.805Z,82.9
2019-01-23T11:36:16.071Z,83.0
2019-01-23T11:37:16.340Z,82.8
2019-01-23T11:38:15.614Z,82.8
2019-01-23T11:39:15.897Z,82.8
2019-01-23T11:40:16.165Z,82.8
2019-01-23T11:41:16.215Z,82.8
2019-01-23T11:42:15.472Z,82.8
2019-01-23T11:43:15.725Z,82.7
2019-01-23T11:44:16.001Z,82.4
2019-01-23T11:45:16.257Z,82.5
2019-01-23T11:46:15.557Z,82.6
2019-01-23T11:47:15.825Z,83.1
2019-01-23T11:48:16.088Z,82.6
2019-01-23T11:49:15.361Z,82.4
2019-01-23T11:50:23.140Z,82.4
2019-01-23T11:51:15.710Z,82.3
2019-01-23T11:52:15.976Z,82.7
2019-01-23T11:53:16.244Z,82.3
2019-01-23T11:54:15.510Z,82.2
2019-01-23T11:55:15.769Z,82.0
2019-01-23T11:56:16.033Z,82.0
2019-01-23T11:57:16.314Z,82.0
2019-01-23T11:58:15.577Z,82.4
2019-01-23T11:59:15.846Z,82.1
2019-01-23T12:00:16.126Z,82.0
2019-01-23T12:01:16.168Z,82.1
2019-01-23T12:02:15.435Z,82.2
2019-01-23T12:03:21.205Z,81.9
2019-01-23T12:04:15.513Z,81.9
2019-01-23T12:05:15.771Z,81.8
2019-01-23T12:06:16.030Z,81.8
2019-01-23T12:07:16.291Z,82.2
2019-01-23T12:08:15.554Z,82.3
2019-01-23T12:09:15.817Z,82.2
2019-01-23T12:10:16.100Z,82.2
2019-01-23T12:11:16.113Z,82.3
2019-01-23T12:12:15.374Z,82.2
2019-01-23T12:13:15.644Z,82.1
2019-01-23T12:14:15.900Z,82.2
2019-01-23T12:15:16.185Z,82.1
2019-01-23T12:16:15.442Z,82.1
2019-01-23T12:17:15.705Z,82.1
2019-01-23T12:18:15.974Z,82.0
2019-01-23T12:19:16.256Z,82.3
2019-01-23T12:20:15.527Z,82.1
2019-01-23T12:21:15.566Z,82.2
2019-01-23T12:22:15.835Z,82.2
2019-01-23T12:23:16.098Z,82.1
2019-01-23T12:24:15.362Z,82.6
2019-01-23T12:25:15.628Z,82.6
2019-01-23T12:26:15.896Z,82.5
2019-01-23T12:27:16.165Z,82.3
2019-01-23T12:28:15.430Z,82.1
2019-01-23T12:29:15.697Z,82.2
2019-01-23T12:30:15.981Z,82.0
2019-01-23T12:31:16.033Z,81.6
2019-01-23T12:32:16.300Z,81.7
2019-01-23T12:33:15.561Z,81.5
2019-01-23T12:34:15.824Z,81.7
2019-01-23T12:35:16.094Z,81.2
2019-01-23T12:36:15.371Z,81.3
2019-01-23T12:37:15.628Z,81.2
2019-01-23T12:38:15.899Z,81.0
2019-01-23T12:39:16.166Z,81.1
2019-01-23T12:40:15.447Z,81.0
2019-01-23T12:41:15.508Z,80.8
2019-01-23T12:42:15.776Z,81.0
2019-01-23T12:43:16.047Z,81.0
2019-01-23T12:44:16.312Z,81.1
2019-01-23T12:45:15.572Z,80.9
2019-01-23T12:46:15.834Z,80.9
2019-01-23T12:47:16.112Z,80.8
2019-01-23T12:48:15.370Z,81.0
2019-01-23T12:49:15.629Z,80.8
2019-01-23T12:50:15.896Z,80.9
2019-01-23T12:51:15.961Z,80.8
2019-01-23T12:52:16.218Z,80.9
2019-01-23T12:53:15.497Z,81.0
2019-01-23T12:54:15.762Z,80.5
2019-01-23T12:55:16.025Z,80.5
2019-01-23T12:56:16.291Z,80.2
2019-01-23T12:57:15.548Z,80.3
2019-01-23T12:58:15.817Z,80.3
2019-01-23T12:59:16.095Z,79.9
2019-01-23T13:00:15.382Z,79.8
2019-01-23T13:01:15.847Z,79.7
2019-01-23T13:02:16.113Z,79.5
2019-01-23T13:03:15.389Z,79.3
2019-01-23T13:04:15.656Z,79.3
2019-01-23T13:05:15.925Z,79.1
2019-01-23T13:06:16.194Z,79.5
2019-01-23T13:07:15.473Z,79.3
2019-01-23T13:08:15.724Z,79.2
2019-01-23T13:09:15.996Z,79.8
2019-01-23T13:10:16.273Z,79.9
2019-01-23T13:11:16.308Z,80.0
2019-01-23T13:12:15.582Z,79.7
2019-01-23T13:13:15.842Z,80.2
2019-01-23T13:14:16.104Z,80.6
2019-01-23T13:15:15.368Z,80.5
2019-01-23T13:16:15.636Z,80.5
2019-01-23T13:17:15.910Z,80.5
2019-01-23T13:18:16.176Z,80.2